sensor_id;sensor_type;location;lat;lon;timestamp;P1;durP1;ratioP1;P2;durP2;ratioP2
73515;SDS011;61763;51.416;5.442;2023-10-19T00:00:39;17.25;;;7.57;;
73515;SDS011;61763;51.416;5.442;2023-10-19T00:03:06;15.10;;;7.32;;
73515;SDS011;61763;51.416;5.442;2023-10-19T00:05:32;13.73;;;7.22;;
73515;SDS011;61763;51.416;5.442;2023-10-19T00:07:58;12.90;;;6.78;;
73515;SDS011;61763;51.416;5.442;2023-10-19T00:10:25;18.00;;;7.93;;
73515;SDS011;61763;51.416;5.442;2023-10-19T00:12:55;14.48;;;6.68;;
73515;SDS011;61763;51.416;5.442;2023-10-19T00:15:34;15.40;;;8.93;;
73515;SDS011;61763;51.416;5.442;2023-10-19T00:18:04;16.92;;;9.10;;
73515;SDS011;61763;51.416;5.442;2023-10-19T00:20:51;16.38;;;9.10;;
73515;SDS011;61763;51.416;5.442;2023-10-19T00:23:18;16.83;;;7.50;;
73515;SDS011;61763;51.416;5.442;2023-10-19T00:25:56;17.70;;;7.68;;
73515;SDS011;61763;51.416;5.442;2023-10-19T00:28:30;14.63;;;8.48;;
73515;SDS011;61763;51.416;5.442;2023-10-19T00:31:00;12.63;;;7.60;;
73515;SDS011;61763;51.416;5.442;2023-10-19T00:33:30;13.30;;;7.72;;
73515;SDS011;61763;51.416;5.442;2023-10-19T00:35:59;16.58;;;8.43;;
73515;SDS011;61763;51.416;5.442;2023-10-19T00:38:31;14.80;;;8.45;;
73515;SDS011;61763;51.416;5.442;2023-10-19T00:41:03;18.48;;;7.10;;
73515;SDS011;61763;51.416;5.442;2023-10-19T00:43:40;14.57;;;6.90;;
73515;SDS011;61763;51.416;5.442;2023-10-19T00:46:14;15.02;;;6.65;;
73515;SDS011;61763;51.416;5.442;2023-10-19T00:48:48;13.90;;;6.47;;
73515;SDS011;61763;51.416;5.442;2023-10-19T00:51:14;14.38;;;8.00;;
73515;SDS011;61763;51.416;5.442;2023-10-19T00:54:14;14.77;;;8.30;;
73515;SDS011;61763;51.416;5.442;2023-10-19T00:56:47;11.50;;;6.85;;
73515;SDS011;61763;51.416;5.442;2023-10-19T00:59:19;16.40;;;7.43;;
73515;SDS011;61763;51.416;5.442;2023-10-19T01:01:55;12.73;;;6.28;;
73515;SDS011;61763;51.416;5.442;2023-10-19T01:04:51;17.13;;;7.93;;
73515;SDS011;61763;51.416;5.442;2023-10-19T01:07:27;10.90;;;5.97;;
73515;SDS011;61763;51.416;5.442;2023-10-19T01:09:54;13.77;;;5.95;;
73515;SDS011;61763;51.416;5.442;2023-10-19T01:12:22;12.90;;;7.35;;
73515;SDS011;61763;51.416;5.442;2023-10-19T01:15:05;16.50;;;7.32;;
73515;SDS011;61763;51.416;5.442;2023-10-19T01:20:11;14.20;;;7.25;;
73515;SDS011;61763;51.416;5.442;2023-10-19T01:22:56;14.15;;;5.82;;
73515;SDS011;61763;51.416;5.442;2023-10-19T01:28:11;12.30;;;6.63;;
73515;SDS011;61763;51.416;5.442;2023-10-19T01:30:41;12.85;;;5.55;;
73515;SDS011;61763;51.416;5.442;2023-10-19T01:33:07;13.63;;;7.45;;
73515;SDS011;61763;51.416;5.442;2023-10-19T01:35:37;14.02;;;5.50;;
73515;SDS011;61763;51.416;5.442;2023-10-19T01:38:22;10.50;;;5.13;;
73515;SDS011;61763;51.416;5.442;2023-10-19T01:40:49;13.73;;;6.90;;
73515;SDS011;61763;51.416;5.442;2023-10-19T01:43:16;14.30;;;6.47;;
73515;SDS011;61763;51.416;5.442;2023-10-19T01:45:51;10.77;;;5.20;;
73515;SDS011;61763;51.416;5.442;2023-10-19T01:48:20;12.70;;;6.20;;
73515;SDS011;61763;51.416;5.442;2023-10-19T01:50:53;14.55;;;5.30;;
73515;SDS011;61763;51.416;5.442;2023-10-19T01:53:18;12.25;;;4.78;;
73515;SDS011;61763;51.416;5.442;2023-10-19T01:55:46;9.07;;;5.00;;
73515;SDS011;61763;51.416;5.442;2023-10-19T01:58:13;6.50;;;2.63;;
73515;SDS011;61763;51.416;5.442;2023-10-19T02:00:40;4.20;;;2.25;;
73515;SDS011;61763;51.416;5.442;2023-10-19T02:03:09;3.92;;;0.90;;
73515;SDS011;61763;51.416;5.442;2023-10-19T02:05:34;4.35;;;1.67;;
73515;SDS011;61763;51.416;5.442;2023-10-19T02:08:07;4.60;;;1.52;;
73515;SDS011;61763;51.416;5.442;2023-10-19T02:10:34;2.33;;;0.80;;
73515;SDS011;61763;51.416;5.442;2023-10-19T02:13:01;3.80;;;2.13;;
73515;SDS011;61763;51.416;5.442;2023-10-19T02:15:31;2.47;;;0.80;;
73515;SDS011;61763;51.416;5.442;2023-10-19T02:17:59;8.18;;;1.02;;
73515;SDS011;61763;51.416;5.442;2023-10-19T02:20:26;6.78;;;1.50;;
73515;SDS011;61763;51.416;5.442;2023-10-19T02:22:53;3.75;;;2.13;;
73515;SDS011;61763;51.416;5.442;2023-10-19T02:25:19;4.35;;;2.13;;
73515;SDS011;61763;51.416;5.442;2023-10-19T02:27:46;6.05;;;2.00;;
73515;SDS011;61763;51.416;5.442;2023-10-19T02:30:11;5.60;;;1.90;;
73515;SDS011;61763;51.416;5.442;2023-10-19T02:32:37;6.30;;;2.28;;
73515;SDS011;61763;51.416;5.442;2023-10-19T02:35:03;2.97;;;0.82;;
73515;SDS011;61763;51.416;5.442;2023-10-19T02:37:29;5.18;;;2.20;;
73515;SDS011;61763;51.416;5.442;2023-10-19T02:39:55;4.63;;;1.92;;
73515;SDS011;61763;51.416;5.442;2023-10-19T02:42:20;2.88;;;1.52;;
73515;SDS011;61763;51.416;5.442;2023-10-19T02:44:47;2.60;;;1.45;;
73515;SDS011;61763;51.416;5.442;2023-10-19T02:47:15;4.45;;;1.90;;
73515;SDS011;61763;51.416;5.442;2023-10-19T02:49:42;4.88;;;0.70;;
73515;SDS011;61763;51.416;5.442;2023-10-19T02:52:09;4.63;;;0.80;;
73515;SDS011;61763;51.416;5.442;2023-10-19T02:54:38;5.32;;;0.70;;
73515;SDS011;61763;51.416;5.442;2023-10-19T02:57:04;4.00;;;1.35;;
73515;SDS011;61763;51.416;5.442;2023-10-19T02:59:34;3.05;;;1.13;;
73515;SDS011;61763;51.416;5.442;2023-10-19T03:02:00;3.58;;;1.10;;
73515;SDS011;61763;51.416;5.442;2023-10-19T03:04:32;4.80;;;1.42;;
73515;SDS011;61763;51.416;5.442;2023-10-19T03:07:00;1.75;;;0.60;;
73515;SDS011;61763;51.416;5.442;2023-10-19T03:09:27;3.85;;;0.50;;
73515;SDS011;61763;51.416;5.442;2023-10-19T03:11:53;5.15;;;1.90;;
73515;SDS011;61763;51.416;5.442;2023-10-19T03:14:24;3.67;;;0.40;;
73515;SDS011;61763;51.416;5.442;2023-10-19T03:16:50;2.22;;;0.52;;
73515;SDS011;61763;51.416;5.442;2023-10-19T03:19:16;4.05;;;0.73;;
73515;SDS011;61763;51.416;5.442;2023-10-19T03:21:41;6.53;;;0.77;;
73515;SDS011;61763;51.416;5.442;2023-10-19T03:24:08;2.33;;;0.40;;
73515;SDS011;61763;51.416;5.442;2023-10-19T03:27:04;4.25;;;1.40;;
73515;SDS011;61763;51.416;5.442;2023-10-19T03:29:42;2.92;;;0.60;;
73515;SDS011;61763;51.416;5.442;2023-10-19T03:32:24;2.42;;;0.80;;
73515;SDS011;61763;51.416;5.442;2023-10-19T03:34:57;4.07;;;0.70;;
73515;SDS011;61763;51.416;5.442;2023-10-19T03:37:25;3.58;;;0.40;;
73515;SDS011;61763;51.416;5.442;2023-10-19T03:39:54;5.13;;;1.15;;
73515;SDS011;61763;51.416;5.442;2023-10-19T03:42:23;2.95;;;1.05;;
73515;SDS011;61763;51.416;5.442;2023-10-19T03:44:59;5.78;;;1.52;;
73515;SDS011;61763;51.416;5.442;2023-10-19T03:47:27;4.70;;;0.43;;
73515;SDS011;61763;51.416;5.442;2023-10-19T03:50:00;1.92;;;0.38;;
73515;SDS011;61763;51.416;5.442;2023-10-19T03:52:28;2.30;;;1.08;;
73515;SDS011;61763;51.416;5.442;2023-10-19T03:57:22;3.47;;;0.50;;
73515;SDS011;61763;51.416;5.442;2023-10-19T03:59:54;2.22;;;0.90;;
73515;SDS011;61763;51.416;5.442;2023-10-19T04:02:22;3.67;;;0.98;;
73515;SDS011;61763;51.416;5.442;2023-10-19T04:04:53;4.55;;;1.13;;
73515;SDS011;61763;51.416;5.442;2023-10-19T04:07:20;5.95;;;0.50;;
73515;SDS011;61763;51.416;5.442;2023-10-19T04:09:49;3.80;;;1.10;;
73515;SDS011;61763;51.416;5.442;2023-10-19T04:12:45;1.90;;;1.60;;
73515;SDS011;61763;51.416;5.442;2023-10-19T04:15:10;5.07;;;0.93;;
73515;SDS011;61763;51.416;5.442;2023-10-19T04:17:45;4.93;;;1.08;;
73515;SDS011;61763;51.416;5.442;2023-10-19T04:20:12;4.55;;;0.32;;
73515;SDS011;61763;51.416;5.442;2023-10-19T04:22:53;4.32;;;0.88;;
73515;SDS011;61763;51.416;5.442;2023-10-19T04:25:19;7.65;;;1.15;;
73515;SDS011;61763;51.416;5.442;2023-10-19T04:27:45;6.43;;;0.43;;
73515;SDS011;61763;51.416;5.442;2023-10-19T04:30:12;4.53;;;0.95;;
73515;SDS011;61763;51.416;5.442;2023-10-19T04:32:44;2.25;;;0.25;;
73515;SDS011;61763;51.416;5.442;2023-10-19T04:35:11;2.33;;;0.30;;
73515;SDS011;61763;51.416;5.442;2023-10-19T04:37:40;6.68;;;1.38;;
73515;SDS011;61763;51.416;5.442;2023-10-19T04:40:10;5.95;;;0.60;;
73515;SDS011;61763;51.416;5.442;2023-10-19T04:42:37;2.53;;;0.52;;
73515;SDS011;61763;51.416;5.442;2023-10-19T04:45:03;4.68;;;1.17;;
73515;SDS011;61763;51.416;5.442;2023-10-19T04:47:30;3.90;;;1.70;;
73515;SDS011;61763;51.416;5.442;2023-10-19T04:49:56;6.28;;;0.50;;
73515;SDS011;61763;51.416;5.442;2023-10-19T04:52:22;4.20;;;1.55;;
73515;SDS011;61763;51.416;5.442;2023-10-19T04:54:47;4.88;;;0.60;;
73515;SDS011;61763;51.416;5.442;2023-10-19T04:57:12;2.53;;;0.43;;
73515;SDS011;61763;51.416;5.442;2023-10-19T04:59:38;7.38;;;0.75;;
73515;SDS011;61763;51.416;5.442;2023-10-19T05:02:03;9.90;;;0.65;;
73515;SDS011;61763;51.416;5.442;2023-10-19T05:04:30;8.63;;;2.08;;
73515;SDS011;61763;51.416;5.442;2023-10-19T05:06:56;4.60;;;0.55;;
73515;SDS011;61763;51.416;5.442;2023-10-19T05:09:21;3.33;;;0.57;;
73515;SDS011;61763;51.416;5.442;2023-10-19T05:11:46;6.93;;;2.22;;
73515;SDS011;61763;51.416;5.442;2023-10-19T05:14:13;5.97;;;2.08;;
73515;SDS011;61763;51.416;5.442;2023-10-19T05:16:41;6.50;;;1.05;;
73515;SDS011;61763;51.416;5.442;2023-10-19T05:19:07;8.00;;;0.70;;
73515;SDS011;61763;51.416;5.442;2023-10-19T05:21:32;9.27;;;1.73;;
73515;SDS011;61763;51.416;5.442;2023-10-19T05:23:59;2.50;;;0.90;;
73515;SDS011;61763;51.416;5.442;2023-10-19T05:26:25;5.15;;;0.98;;
73515;SDS011;61763;51.416;5.442;2023-10-19T05:28:51;6.78;;;0.60;;
73515;SDS011;61763;51.416;5.442;2023-10-19T05:31:16;2.40;;;0.60;;
73515;SDS011;61763;51.416;5.442;2023-10-19T05:33:42;3.80;;;0.82;;
73515;SDS011;61763;51.416;5.442;2023-10-19T05:36:07;8.07;;;0.98;;
73515;SDS011;61763;51.416;5.442;2023-10-19T05:38:33;5.22;;;1.63;;
73515;SDS011;61763;51.416;5.442;2023-10-19T05:40:58;5.45;;;1.70;;
73515;SDS011;61763;51.416;5.442;2023-10-19T05:43:28;3.92;;;1.33;;
73515;SDS011;61763;51.416;5.442;2023-10-19T05:45:53;8.88;;;2.00;;
73515;SDS011;61763;51.416;5.442;2023-10-19T05:48:19;10.32;;;1.50;;
73515;SDS011;61763;51.416;5.442;2023-10-19T05:50:46;10.15;;;1.90;;
73515;SDS011;61763;51.416;5.442;2023-10-19T05:53:11;9.02;;;2.58;;
73515;SDS011;61763;51.416;5.442;2023-10-19T05:55:38;6.47;;;0.70;;
73515;SDS011;61763;51.416;5.442;2023-10-19T05:58:04;4.68;;;0.80;;
73515;SDS011;61763;51.416;5.442;2023-10-19T06:00:30;8.05;;;1.05;;
73515;SDS011;61763;51.416;5.442;2023-10-19T06:02:56;10.32;;;2.47;;
73515;SDS011;61763;51.416;5.442;2023-10-19T06:05:22;8.38;;;0.80;;
73515;SDS011;61763;51.416;5.442;2023-10-19T06:07:49;7.95;;;1.95;;
73515;SDS011;61763;51.416;5.442;2023-10-19T06:10:21;7.93;;;0.80;;
73515;SDS011;61763;51.416;5.442;2023-10-19T06:12:51;3.67;;;0.60;;
73515;SDS011;61763;51.416;5.442;2023-10-19T06:15:17;2.90;;;1.58;;
73515;SDS011;61763;51.416;5.442;2023-10-19T06:17:43;8.80;;;0.82;;
73515;SDS011;61763;51.416;5.442;2023-10-19T06:20:11;4.45;;;1.70;;
73515;SDS011;61763;51.416;5.442;2023-10-19T06:25:22;8.80;;;1.42;;
73515;SDS011;61763;51.416;5.442;2023-10-19T06:27:49;7.28;;;0.90;;
73515;SDS011;61763;51.416;5.442;2023-10-19T06:30:16;8.23;;;3.25;;
73515;SDS011;61763;51.416;5.442;2023-10-19T06:32:44;5.25;;;0.90;;
73515;SDS011;61763;51.416;5.442;2023-10-19T06:35:12;5.03;;;1.25;;
73515;SDS011;61763;51.416;5.442;2023-10-19T06:37:38;10.20;;;2.15;;
73515;SDS011;61763;51.416;5.442;2023-10-19T06:40:04;7.95;;;1.50;;
73515;SDS011;61763;51.416;5.442;2023-10-19T06:42:36;6.63;;;1.83;;
73515;SDS011;61763;51.416;5.442;2023-10-19T06:45:01;6.90;;;1.50;;
73515;SDS011;61763;51.416;5.442;2023-10-19T06:47:27;8.85;;;2.20;;
73515;SDS011;61763;51.416;5.442;2023-10-19T06:49:53;8.45;;;2.22;;
73515;SDS011;61763;51.416;5.442;2023-10-19T06:52:20;8.13;;;1.00;;
73515;SDS011;61763;51.416;5.442;2023-10-19T06:54:45;7.78;;;1.95;;
73515;SDS011;61763;51.416;5.442;2023-10-19T06:57:11;6.40;;;1.20;;
73515;SDS011;61763;51.416;5.442;2023-10-19T06:59:37;7.18;;;0.70;;
73515;SDS011;61763;51.416;5.442;2023-10-19T07:02:04;6.00;;;1.33;;
73515;SDS011;61763;51.416;5.442;2023-10-19T07:04:29;6.57;;;1.10;;
73515;SDS011;61763;51.416;5.442;2023-10-19T07:06:55;6.93;;;0.95;;
73515;SDS011;61763;51.416;5.442;2023-10-19T07:09:21;7.93;;;1.40;;
73515;SDS011;61763;51.416;5.442;2023-10-19T07:11:48;5.28;;;1.52;;
73515;SDS011;61763;51.416;5.442;2023-10-19T07:14:18;12.05;;;1.73;;
73515;SDS011;61763;51.416;5.442;2023-10-19T07:16:43;4.05;;;0.57;;
73515;SDS011;61763;51.416;5.442;2023-10-19T07:19:09;9.90;;;1.00;;
73515;SDS011;61763;51.416;5.442;2023-10-19T07:21:35;5.28;;;0.80;;
73515;SDS011;61763;51.416;5.442;2023-10-19T07:24:02;5.18;;;1.90;;
73515;SDS011;61763;51.416;5.442;2023-10-19T07:26:31;6.88;;;1.63;;
73515;SDS011;61763;51.416;5.442;2023-10-19T07:28:58;6.20;;;1.38;;
73515;SDS011;61763;51.416;5.442;2023-10-19T07:31:25;4.90;;;0.60;;
73515;SDS011;61763;51.416;5.442;2023-10-19T07:36:20;7.82;;;1.80;;
73515;SDS011;61763;51.416;5.442;2023-10-19T07:38:46;3.63;;;1.80;;
73515;SDS011;61763;51.416;5.442;2023-10-19T07:41:12;6.57;;;0.60;;
73515;SDS011;61763;51.416;5.442;2023-10-19T07:43:38;8.63;;;1.75;;
73515;SDS011;61763;51.416;5.442;2023-10-19T07:46:04;7.55;;;1.98;;
73515;SDS011;61763;51.416;5.442;2023-10-19T07:48:29;5.60;;;1.77;;
73515;SDS011;61763;51.416;5.442;2023-10-19T07:50:55;6.95;;;2.03;;
73515;SDS011;61763;51.416;5.442;2023-10-19T07:53:21;8.63;;;1.63;;
73515;SDS011;61763;51.416;5.442;2023-10-19T07:55:47;8.48;;;1.50;;
73515;SDS011;61763;51.416;5.442;2023-10-19T07:58:12;7.93;;;1.75;;
73515;SDS011;61763;51.416;5.442;2023-10-19T08:00:38;6.53;;;0.60;;
73515;SDS011;61763;51.416;5.442;2023-10-19T08:03:05;5.13;;;0.95;;
73515;SDS011;61763;51.416;5.442;2023-10-19T08:05:31;6.38;;;0.80;;
73515;SDS011;61763;51.416;5.442;2023-10-19T08:10:25;6.38;;;0.50;;
73515;SDS011;61763;51.416;5.442;2023-10-19T08:12:51;3.60;;;0.43;;
73515;SDS011;61763;51.416;5.442;2023-10-19T08:15:18;9.65;;;1.30;;
73515;SDS011;61763;51.416;5.442;2023-10-19T08:17:46;7.05;;;1.55;;
73515;SDS011;61763;51.416;5.442;2023-10-19T08:20:13;4.32;;;1.50;;
73515;SDS011;61763;51.416;5.442;2023-10-19T08:22:48;6.93;;;0.50;;
73515;SDS011;61763;51.416;5.442;2023-10-19T08:25:15;8.82;;;1.38;;
73515;SDS011;61763;51.416;5.442;2023-10-19T08:27:41;5.22;;;1.40;;
73515;SDS011;61763;51.416;5.442;2023-10-19T08:30:09;4.95;;;1.55;;
73515;SDS011;61763;51.416;5.442;2023-10-19T08:32:37;5.70;;;1.48;;
73515;SDS011;61763;51.416;5.442;2023-10-19T08:35:04;7.80;;;1.42;;
73515;SDS011;61763;51.416;5.442;2023-10-19T08:37:30;7.57;;;0.65;;
73515;SDS011;61763;51.416;5.442;2023-10-19T08:39:56;5.65;;;0.50;;
73515;SDS011;61763;51.416;5.442;2023-10-19T08:42:23;4.40;;;0.70;;
73515;SDS011;61763;51.416;5.442;2023-10-19T08:44:48;2.88;;;0.43;;
73515;SDS011;61763;51.416;5.442;2023-10-19T08:47:14;5.53;;;1.52;;
73515;SDS011;61763;51.416;5.442;2023-10-19T08:49:40;7.28;;;0.63;;
73515;SDS011;61763;51.416;5.442;2023-10-19T08:52:06;7.25;;;1.95;;
73515;SDS011;61763;51.416;5.442;2023-10-19T08:54:33;6.82;;;1.10;;
73515;SDS011;61763;51.416;5.442;2023-10-19T08:56:59;8.43;;;1.40;;
73515;SDS011;61763;51.416;5.442;2023-10-19T08:59:25;5.25;;;1.40;;
73515;SDS011;61763;51.416;5.442;2023-10-19T09:01:59;9.48;;;0.63;;
73515;SDS011;61763;51.416;5.442;2023-10-19T09:06:50;7.82;;;2.13;;
73515;SDS011;61763;51.416;5.442;2023-10-19T09:09:20;5.45;;;1.48;;
73515;SDS011;61763;51.416;5.442;2023-10-19T09:11:46;5.35;;;2.03;;
73515;SDS011;61763;51.416;5.442;2023-10-19T09:14:14;4.43;;;1.27;;
73515;SDS011;61763;51.416;5.442;2023-10-19T09:16:55;6.57;;;1.35;;
73515;SDS011;61763;51.416;5.442;2023-10-19T09:19:43;3.55;;;0.30;;
73515;SDS011;61763;51.416;5.442;2023-10-19T09:22:12;5.13;;;0.35;;
73515;SDS011;61763;51.416;5.442;2023-10-19T09:24:50;9.30;;;1.70;;
73515;SDS011;61763;51.416;5.442;2023-10-19T09:27:18;6.38;;;0.50;;
73515;SDS011;61763;51.416;5.442;2023-10-19T09:29:45;4.78;;;0.50;;
73515;SDS011;61763;51.416;5.442;2023-10-19T09:32:11;4.40;;;1.05;;
73515;SDS011;61763;51.416;5.442;2023-10-19T09:34:41;5.82;;;0.65;;
73515;SDS011;61763;51.416;5.442;2023-10-19T09:37:10;4.53;;;0.35;;
73515;SDS011;61763;51.416;5.442;2023-10-19T09:39:36;4.45;;;0.70;;
73515;SDS011;61763;51.416;5.442;2023-10-19T09:42:08;3.95;;;0.40;;
73515;SDS011;61763;51.416;5.442;2023-10-19T09:44:42;10.90;;;1.67;;
73515;SDS011;61763;51.416;5.442;2023-10-19T09:47:11;6.60;;;0.73;;
73515;SDS011;61763;51.416;5.442;2023-10-19T09:49:43;5.53;;;0.73;;
73515;SDS011;61763;51.416;5.442;2023-10-19T09:52:09;6.47;;;1.35;;
73515;SDS011;61763;51.416;5.442;2023-10-19T09:57:18;5.18;;;1.70;;
73515;SDS011;61763;51.416;5.442;2023-10-19T09:59:55;3.55;;;0.40;;
73515;SDS011;61763;51.416;5.442;2023-10-19T10:02:24;5.75;;;1.27;;
73515;SDS011;61763;51.416;5.442;2023-10-19T10:04:51;6.03;;;0.77;;
73515;SDS011;61763;51.416;5.442;2023-10-19T10:07:17;8.32;;;1.67;;
73515;SDS011;61763;51.416;5.442;2023-10-19T10:09:42;7.65;;;0.60;;
73515;SDS011;61763;51.416;5.442;2023-10-19T10:12:21;4.60;;;1.35;;
73515;SDS011;61763;51.416;5.442;2023-10-19T10:17:41;5.95;;;2.17;;
73515;SDS011;61763;51.416;5.442;2023-10-19T10:22:38;5.25;;;0.50;;
73515;SDS011;61763;51.416;5.442;2023-10-19T10:25:06;7.40;;;1.02;;
73515;SDS011;61763;51.416;5.442;2023-10-19T10:27:32;4.80;;;1.45;;
73515;SDS011;61763;51.416;5.442;2023-10-19T10:30:01;8.63;;;1.83;;
73515;SDS011;61763;51.416;5.442;2023-10-19T10:35:10;6.93;;;1.30;;
73515;SDS011;61763;51.416;5.442;2023-10-19T10:37:55;5.78;;;0.50;;
73515;SDS011;61763;51.416;5.442;2023-10-19T10:40:21;6.05;;;1.38;;
73515;SDS011;61763;51.416;5.442;2023-10-19T10:42:47;2.70;;;0.60;;
73515;SDS011;61763;51.416;5.442;2023-10-19T10:45:20;4.30;;;0.40;;
73515;SDS011;61763;51.416;5.442;2023-10-19T10:47:48;8.45;;;1.90;;
73515;SDS011;61763;51.416;5.442;2023-10-19T10:50:19;6.70;;;0.47;;
73515;SDS011;61763;51.416;5.442;2023-10-19T10:52:45;4.65;;;0.43;;
73515;SDS011;61763;51.416;5.442;2023-10-19T10:55:11;5.85;;;0.90;;
73515;SDS011;61763;51.416;5.442;2023-10-19T10:57:38;8.38;;;1.48;;
73515;SDS011;61763;51.416;5.442;2023-10-19T11:00:07;4.97;;;0.70;;
73515;SDS011;61763;51.416;5.442;2023-10-19T11:02:37;6.35;;;2.05;;
73515;SDS011;61763;51.416;5.442;2023-10-19T11:05:08;8.50;;;2.03;;
73515;SDS011;61763;51.416;5.442;2023-10-19T11:07:40;6.35;;;1.58;;
73515;SDS011;61763;51.416;5.442;2023-10-19T11:10:07;5.28;;;1.83;;
73515;SDS011;61763;51.416;5.442;2023-10-19T11:12:36;7.15;;;1.70;;
73515;SDS011;61763;51.416;5.442;2023-10-19T11:15:02;4.53;;;0.60;;
73515;SDS011;61763;51.416;5.442;2023-10-19T11:17:41;8.23;;;1.80;;
73515;SDS011;61763;51.416;5.442;2023-10-19T11:20:08;7.35;;;2.13;;
73515;SDS011;61763;51.416;5.442;2023-10-19T11:22:44;5.72;;;0.50;;
73515;SDS011;61763;51.416;5.442;2023-10-19T11:25:18;5.50;;;0.73;;
73515;SDS011;61763;51.416;5.442;2023-10-19T11:27:44;6.68;;;1.48;;
73515;SDS011;61763;51.416;5.442;2023-10-19T11:30:10;7.32;;;1.67;;
73515;SDS011;61763;51.416;5.442;2023-10-19T11:32:37;7.55;;;0.95;;
73515;SDS011;61763;51.416;5.442;2023-10-19T11:35:05;5.13;;;2.08;;
73515;SDS011;61763;51.416;5.442;2023-10-19T11:37:45;6.60;;;1.75;;
73515;SDS011;61763;51.416;5.442;2023-10-19T11:40:14;5.68;;;1.52;;
73515;SDS011;61763;51.416;5.442;2023-10-19T11:42:40;7.45;;;1.33;;
73515;SDS011;61763;51.416;5.442;2023-10-19T11:45:05;10.05;;;1.63;;
73515;SDS011;61763;51.416;5.442;2023-10-19T11:47:31;9.68;;;1.67;;
73515;SDS011;61763;51.416;5.442;2023-10-19T11:49:56;5.32;;;0.80;;
73515;SDS011;61763;51.416;5.442;2023-10-19T11:52:22;5.35;;;0.40;;
73515;SDS011;61763;51.416;5.442;2023-10-19T11:54:48;6.35;;;1.73;;
73515;SDS011;61763;51.416;5.442;2023-10-19T11:57:13;8.85;;;1.67;;
73515;SDS011;61763;51.416;5.442;2023-10-19T11:59:39;7.25;;;0.55;;
73515;SDS011;61763;51.416;5.442;2023-10-19T12:02:06;4.50;;;1.52;;
73515;SDS011;61763;51.416;5.442;2023-10-19T12:04:32;5.15;;;0.50;;
73515;SDS011;61763;51.416;5.442;2023-10-19T12:07:01;5.28;;;1.45;;
73515;SDS011;61763;51.416;5.442;2023-10-19T12:09:27;9.60;;;0.68;;
73515;SDS011;61763;51.416;5.442;2023-10-19T12:11:53;6.00;;;1.85;;
73515;SDS011;61763;51.416;5.442;2023-10-19T12:14:19;6.30;;;0.70;;
73515;SDS011;61763;51.416;5.442;2023-10-19T12:16:46;7.43;;;1.70;;
73515;SDS011;61763;51.416;5.442;2023-10-19T12:19:12;7.55;;;1.75;;
73515;SDS011;61763;51.416;5.442;2023-10-19T12:21:40;8.75;;;2.08;;
73515;SDS011;61763;51.416;5.442;2023-10-19T12:24:09;10.15;;;1.65;;
73515;SDS011;61763;51.416;5.442;2023-10-19T12:26:35;7.20;;;1.70;;
73515;SDS011;61763;51.416;5.442;2023-10-19T12:29:00;9.65;;;1.85;;
73515;SDS011;61763;51.416;5.442;2023-10-19T12:31:26;9.60;;;1.73;;
73515;SDS011;61763;51.416;5.442;2023-10-19T12:33:51;7.20;;;1.02;;
73515;SDS011;61763;51.416;5.442;2023-10-19T12:36:17;7.20;;;0.82;;
73515;SDS011;61763;51.416;5.442;2023-10-19T12:38:52;7.18;;;1.73;;
73515;SDS011;61763;51.416;5.442;2023-10-19T12:41:18;7.15;;;1.80;;
73515;SDS011;61763;51.416;5.442;2023-10-19T12:43:44;6.90;;;0.80;;
73515;SDS011;61763;51.416;5.442;2023-10-19T12:46:11;7.63;;;2.40;;
73515;SDS011;61763;51.416;5.442;2023-10-19T12:48:38;6.85;;;1.50;;
73515;SDS011;61763;51.416;5.442;2023-10-19T12:51:04;7.00;;;1.42;;
73515;SDS011;61763;51.416;5.442;2023-10-19T12:53:34;7.88;;;2.30;;
73515;SDS011;61763;51.416;5.442;2023-10-19T12:56:00;7.07;;;1.25;;
73515;SDS011;61763;51.416;5.442;2023-10-19T12:58:25;7.10;;;1.63;;
73515;SDS011;61763;51.416;5.442;2023-10-19T13:00:52;7.53;;;0.55;;
73515;SDS011;61763;51.416;5.442;2023-10-19T13:03:19;8.38;;;1.83;;
73515;SDS011;61763;51.416;5.442;2023-10-19T13:08:12;6.10;;;0.83;;
73515;SDS011;61763;51.416;5.442;2023-10-19T13:10:44;9.45;;;1.92;;
73515;SDS011;61763;51.416;5.442;2023-10-19T13:13:12;11.48;;;2.25;;
73515;SDS011;61763;51.416;5.442;2023-10-19T13:15:59;6.25;;;0.75;;
73515;SDS011;61763;51.416;5.442;2023-10-19T13:18:25;7.95;;;2.60;;
73515;SDS011;61763;51.416;5.442;2023-10-19T13:20:54;9.23;;;1.65;;
73515;SDS011;61763;51.416;5.442;2023-10-19T13:23:22;6.90;;;1.42;;
73515;SDS011;61763;51.416;5.442;2023-10-19T13:25:47;10.73;;;2.08;;
73515;SDS011;61763;51.416;5.442;2023-10-19T13:31:03;7.60;;;2.17;;
73515;SDS011;61763;51.416;5.442;2023-10-19T13:33:29;7.75;;;1.83;;
73515;SDS011;61763;51.416;5.442;2023-10-19T13:35:55;8.52;;;1.85;;
73515;SDS011;61763;51.416;5.442;2023-10-19T13:38:20;7.60;;;2.17;;
73515;SDS011;61763;51.416;5.442;2023-10-19T13:40:46;7.13;;;1.98;;
73515;SDS011;61763;51.416;5.442;2023-10-19T13:43:14;6.15;;;2.08;;
73515;SDS011;61763;51.416;5.442;2023-10-19T13:45:39;7.07;;;0.73;;
73515;SDS011;61763;51.416;5.442;2023-10-19T13:50:33;5.68;;;1.00;;
73515;SDS011;61763;51.416;5.442;2023-10-19T13:53:00;6.97;;;1.52;;
73515;SDS011;61763;51.416;5.442;2023-10-19T13:55:26;7.97;;;2.00;;
73515;SDS011;61763;51.416;5.442;2023-10-19T13:57:53;6.72;;;1.55;;
73515;SDS011;61763;51.416;5.442;2023-10-19T14:00:20;4.78;;;1.52;;
73515;SDS011;61763;51.416;5.442;2023-10-19T14:03:05;6.53;;;1.38;;
73515;SDS011;61763;51.416;5.442;2023-10-19T14:05:37;7.97;;;2.13;;
73515;SDS011;61763;51.416;5.442;2023-10-19T14:08:13;4.03;;;1.33;;
73515;SDS011;61763;51.416;5.442;2023-10-19T14:10:42;8.13;;;1.77;;
73515;SDS011;61763;51.416;5.442;2023-10-19T14:13:09;6.45;;;2.22;;
73515;SDS011;61763;51.416;5.442;2023-10-19T14:15:45;5.25;;;1.45;;
73515;SDS011;61763;51.416;5.442;2023-10-19T14:18:10;6.00;;;0.63;;
73515;SDS011;61763;51.416;5.442;2023-10-19T14:20:36;10.13;;;1.13;;
73515;SDS011;61763;51.416;5.442;2023-10-19T14:23:04;3.72;;;2.05;;
73515;SDS011;61763;51.416;5.442;2023-10-19T14:25:30;4.20;;;0.90;;
73515;SDS011;61763;51.416;5.442;2023-10-19T14:27:56;10.63;;;2.03;;
73515;SDS011;61763;51.416;5.442;2023-10-19T14:30:25;7.93;;;1.70;;
73515;SDS011;61763;51.416;5.442;2023-10-19T14:32:53;3.22;;;1.90;;
73515;SDS011;61763;51.416;5.442;2023-10-19T14:35:19;3.97;;;0.70;;
73515;SDS011;61763;51.416;5.442;2023-10-19T14:37:46;6.28;;;1.55;;
73515;SDS011;61763;51.416;5.442;2023-10-19T14:40:16;4.00;;;1.25;;
73515;SDS011;61763;51.416;5.442;2023-10-19T14:42:45;3.35;;;1.63;;
73515;SDS011;61763;51.416;5.442;2023-10-19T14:45:12;5.30;;;2.28;;
73515;SDS011;61763;51.416;5.442;2023-10-19T14:47:52;3.65;;;0.57;;
73515;SDS011;61763;51.416;5.442;2023-10-19T14:50:20;4.97;;;1.75;;
73515;SDS011;61763;51.416;5.442;2023-10-19T14:52:46;6.72;;;1.80;;
73515;SDS011;61763;51.416;5.442;2023-10-19T14:55:13;4.53;;;1.33;;
73515;SDS011;61763;51.416;5.442;2023-10-19T14:57:41;6.25;;;1.92;;
73515;SDS011;61763;51.416;5.442;2023-10-19T15:00:08;5.60;;;1.48;;
73515;SDS011;61763;51.416;5.442;2023-10-19T15:02:53;4.07;;;0.60;;
73515;SDS011;61763;51.416;5.442;2023-10-19T15:05:20;5.72;;;1.83;;
73515;SDS011;61763;51.416;5.442;2023-10-19T15:07:48;7.05;;;2.95;;
73515;SDS011;61763;51.416;5.442;2023-10-19T15:10:18;6.85;;;1.63;;
73515;SDS011;61763;51.416;5.442;2023-10-19T15:12:45;5.85;;;1.35;;
73515;SDS011;61763;51.416;5.442;2023-10-19T15:15:11;7.93;;;1.88;;
73515;SDS011;61763;51.416;5.442;2023-10-19T15:17:37;5.32;;;1.95;;
73515;SDS011;61763;51.416;5.442;2023-10-19T15:20:07;6.15;;;1.02;;
73515;SDS011;61763;51.416;5.442;2023-10-19T15:22:35;5.20;;;2.17;;
73515;SDS011;61763;51.416;5.442;2023-10-19T15:25:01;4.07;;;1.58;;
73515;SDS011;61763;51.416;5.442;2023-10-19T15:27:26;6.57;;;0.90;;
73515;SDS011;61763;51.416;5.442;2023-10-19T15:29:54;3.85;;;2.13;;